sensor_id;sensor_type;location;lat;lon;timestamp;P1;durP1;ratioP1;P2;durP2;ratioP2
38901;SDS011;24661;53.566;9.910;2023-06-19T00:01:14;5.50;;;4.80;;
38901;SDS011;24661;53.566;9.910;2023-06-19T00:03:40;7.00;;;5.37;;
38901;SDS011;24661;53.566;9.910;2023-06-19T00:06:05;6.63;;;5.43;;
38901;SDS011;24661;53.566;9.910;2023-06-19T00:08:31;6.67;;;5.70;;
38901;SDS011;24661;53.566;9.910;2023-06-19T00:10:57;6.00;;;4.90;;
38901;SDS011;24661;53.566;9.910;2023-06-19T00:13:22;5.97;;;5.27;;
38901;SDS011;24661;53.566;9.910;2023-06-19T00:15:48;6.50;;;5.43;;
38901;SDS011;24661;53.566;9.910;2023-06-19T00:18:14;6.33;;;5.57;;
38901;SDS011;24661;53.566;9.910;2023-06-19T00:20:41;5.30;;;4.80;;
38901;SDS011;24661;53.566;9.910;2023-06-19T00:23:10;5.27;;;4.77;;
38901;SDS011;24661;53.566;9.910;2023-06-19T00:25:39;5.80;;;4.97;;
38901;SDS011;24661;53.566;9.910;2023-06-19T00:28:05;5.17;;;4.63;;
38901;SDS011;24661;53.566;9.910;2023-06-19T00:30:36;8.53;;;5.70;;
38901;SDS011;24661;53.566;9.910;2023-06-19T00:33:02;5.77;;;5.13;;
38901;SDS011;24661;53.566;9.910;2023-06-19T00:35:28;8.87;;;5.60;;
38901;SDS011;24661;53.566;9.910;2023-06-19T00:37:53;6.37;;;5.57;;
38901;SDS011;24661;53.566;9.910;2023-06-19T00:40:29;6.77;;;5.40;;
38901;SDS011;24661;53.566;9.910;2023-06-19T00:42:56;7.13;;;5.37;;
38901;SDS011;24661;53.566;9.910;2023-06-19T00:45:23;7.67;;;5.20;;
38901;SDS011;24661;53.566;9.910;2023-06-19T00:47:52;7.53;;;5.63;;
38901;SDS011;24661;53.566;9.910;2023-06-19T00:50:18;6.70;;;5.97;;
38901;SDS011;24661;53.566;9.910;2023-06-19T00:52:45;5.93;;;5.33;;
38901;SDS011;24661;53.566;9.910;2023-06-19T00:55:10;5.40;;;4.87;;
38901;SDS011;24661;53.566;9.910;2023-06-19T00:57:37;7.27;;;5.80;;
38901;SDS011;24661;53.566;9.910;2023-06-19T01:00:04;7.93;;;5.87;;
38901;SDS011;24661;53.566;9.910;2023-06-19T01:02:32;9.77;;;6.73;;
38901;SDS011;24661;53.566;9.910;2023-06-19T01:04:57;6.30;;;5.60;;
38901;SDS011;24661;53.566;9.910;2023-06-19T01:10:18;6.23;;;5.63;;
38901;SDS011;24661;53.566;9.910;2023-06-19T01:12:50;6.80;;;6.10;;
38901;SDS011;24661;53.566;9.910;2023-06-19T01:15:21;6.60;;;5.90;;
38901;SDS011;24661;53.566;9.910;2023-06-19T01:17:47;7.57;;;6.73;;
38901;SDS011;24661;53.566;9.910;2023-06-19T01:20:14;7.90;;;6.13;;
38901;SDS011;24661;53.566;9.910;2023-06-19T01:22:40;6.23;;;5.60;;
38901;SDS011;24661;53.566;9.910;2023-06-19T01:25:08;6.47;;;5.57;;
38901;SDS011;24661;53.566;9.910;2023-06-19T01:27:34;8.23;;;5.43;;
38901;SDS011;24661;53.566;9.910;2023-06-19T01:30:01;7.90;;;6.43;;
38901;SDS011;24661;53.566;9.910;2023-06-19T01:32:38;9.17;;;6.13;;
38901;SDS011;24661;53.566;9.910;2023-06-19T01:35:27;9.70;;;6.80;;
38901;SDS011;24661;53.566;9.910;2023-06-19T01:37:54;7.47;;;6.73;;
38901;SDS011;24661;53.566;9.910;2023-06-19T01:40:21;6.17;;;5.57;;
38901;SDS011;24661;53.566;9.910;2023-06-19T01:42:51;9.33;;;6.23;;
38901;SDS011;24661;53.566;9.910;2023-06-19T01:45:19;7.77;;;5.77;;
38901;SDS011;24661;53.566;9.910;2023-06-19T01:47:45;6.83;;;5.73;;
38901;SDS011;24661;53.566;9.910;2023-06-19T01:50:11;8.63;;;6.87;;
38901;SDS011;24661;53.566;9.910;2023-06-19T01:52:39;7.13;;;5.77;;
38901;SDS011;24661;53.566;9.910;2023-06-19T01:55:06;11.17;;;6.10;;
38901;SDS011;24661;53.566;9.910;2023-06-19T01:57:32;7.20;;;6.50;;
38901;SDS011;24661;53.566;9.910;2023-06-19T01:59:58;7.37;;;6.53;;
38901;SDS011;24661;53.566;9.910;2023-06-19T02:02:24;9.17;;;6.80;;
38901;SDS011;24661;53.566;9.910;2023-06-19T02:04:49;7.53;;;6.77;;
38901;SDS011;24661;53.566;9.910;2023-06-19T02:07:15;8.53;;;6.33;;
38901;SDS011;24661;53.566;9.910;2023-06-19T02:09:40;8.50;;;7.07;;
38901;SDS011;24661;53.566;9.910;2023-06-19T02:12:06;7.87;;;7.07;;
38901;SDS011;24661;53.566;9.910;2023-06-19T02:14:32;8.40;;;6.77;;
38901;SDS011;24661;53.566;9.910;2023-06-19T02:16:58;9.77;;;7.00;;
38901;SDS011;24661;53.566;9.910;2023-06-19T02:19:23;7.47;;;6.03;;
38901;SDS011;24661;53.566;9.910;2023-06-19T02:21:49;9.07;;;7.23;;
38901;SDS011;24661;53.566;9.910;2023-06-19T02:24:14;10.03;;;7.40;;
38901;SDS011;24661;53.566;9.910;2023-06-19T02:26:40;8.53;;;6.87;;
38901;SDS011;24661;53.566;9.910;2023-06-19T02:29:05;9.73;;;6.90;;
38901;SDS011;24661;53.566;9.910;2023-06-19T02:31:31;8.83;;;6.03;;
38901;SDS011;24661;53.566;9.910;2023-06-19T02:33:56;8.70;;;6.90;;
38901;SDS011;24661;53.566;9.910;2023-06-19T02:36:22;9.17;;;7.27;;
38901;SDS011;24661;53.566;9.910;2023-06-19T02:38:48;8.07;;;6.50;;
38901;SDS011;24661;53.566;9.910;2023-06-19T02:41:14;9.23;;;6.73;;
38901;SDS011;24661;53.566;9.910;2023-06-19T02:43:43;10.03;;;7.77;;
38901;SDS011;24661;53.566;9.910;2023-06-19T02:46:11;8.00;;;7.10;;
38901;SDS011;24661;53.566;9.910;2023-06-19T02:48:37;9.70;;;7.50;;
38901;SDS011;24661;53.566;9.910;2023-06-19T02:51:03;7.30;;;6.60;;
38901;SDS011;24661;53.566;9.910;2023-06-19T02:53:28;7.43;;;6.67;;
38901;SDS011;24661;53.566;9.910;2023-06-19T02:55:54;8.17;;;7.27;;
38901;SDS011;24661;53.566;9.910;2023-06-19T02:58:19;8.60;;;7.10;;
38901;SDS011;24661;53.566;9.910;2023-06-19T03:00:45;8.87;;;7.33;;
38901;SDS011;24661;53.566;9.910;2023-06-19T03:03:11;8.80;;;7.33;;
38901;SDS011;24661;53.566;9.910;2023-06-19T03:05:37;8.47;;;6.90;;
38901;SDS011;24661;53.566;9.910;2023-06-19T03:08:02;7.90;;;7.10;;
38901;SDS011;24661;53.566;9.910;2023-06-19T03:10:28;11.83;;;6.73;;
38901;SDS011;24661;53.566;9.910;2023-06-19T03:12:54;8.40;;;7.50;;
38901;SDS011;24661;53.566;9.910;2023-06-19T03:15:19;9.37;;;8.10;;
38901;SDS011;24661;53.566;9.910;2023-06-19T03:17:45;8.07;;;7.07;;
38901;SDS011;24661;53.566;9.910;2023-06-19T03:20:10;9.60;;;7.80;;
38901;SDS011;24661;53.566;9.910;2023-06-19T03:22:38;10.87;;;7.63;;
38901;SDS011;24661;53.566;9.910;2023-06-19T03:25:05;11.40;;;7.70;;
38901;SDS011;24661;53.566;9.910;2023-06-19T03:27:31;10.03;;;7.77;;
38901;SDS011;24661;53.566;9.910;2023-06-19T03:29:56;8.73;;;7.83;;
38901;SDS011;24661;53.566;9.910;2023-06-19T03:32:22;10.43;;;7.87;;
38901;SDS011;24661;53.566;9.910;2023-06-19T03:34:47;10.43;;;7.50;;
38901;SDS011;24661;53.566;9.910;2023-06-19T03:37:13;10.67;;;7.70;;
38901;SDS011;24661;53.566;9.910;2023-06-19T03:39:39;8.57;;;7.67;;
38901;SDS011;24661;53.566;9.910;2023-06-19T03:42:04;10.90;;;8.33;;
38901;SDS011;24661;53.566;9.910;2023-06-19T03:44:30;11.00;;;8.13;;
38901;SDS011;24661;53.566;9.910;2023-06-19T03:46:55;10.57;;;8.20;;
38901;SDS011;24661;53.566;9.910;2023-06-19T03:49:21;8.67;;;7.87;;
38901;SDS011;24661;53.566;9.910;2023-06-19T03:51:47;9.83;;;7.97;;
38901;SDS011;24661;53.566;9.910;2023-06-19T03:54:12;12.27;;;7.77;;
38901;SDS011;24661;53.566;9.910;2023-06-19T03:56:38;10.87;;;8.60;;
38901;SDS011;24661;53.566;9.910;2023-06-19T03:59:03;8.90;;;8.00;;
38901;SDS011;24661;53.566;9.910;2023-06-19T04:01:29;10.03;;;7.37;;
38901;SDS011;24661;53.566;9.910;2023-06-19T04:03:54;10.00;;;7.93;;
38901;SDS011;24661;53.566;9.910;2023-06-19T04:06:20;9.83;;;8.17;;
38901;SDS011;24661;53.566;9.910;2023-06-19T04:08:46;9.30;;;8.20;;
38901;SDS011;24661;53.566;9.910;2023-06-19T04:11:11;9.80;;;7.77;;
38901;SDS011;24661;53.566;9.910;2023-06-19T04:13:37;11.33;;;8.47;;
38901;SDS011;24661;53.566;9.910;2023-06-19T04:16:02;9.97;;;8.93;;
38901;SDS011;24661;53.566;9.910;2023-06-19T04:18:28;10.43;;;8.27;;
38901;SDS011;24661;53.566;9.910;2023-06-19T04:20:54;11.20;;;8.30;;
38901;SDS011;24661;53.566;9.910;2023-06-19T04:23:19;10.80;;;8.23;;
38901;SDS011;24661;53.566;9.910;2023-06-19T04:25:45;9.93;;;8.93;;
38901;SDS011;24661;53.566;9.910;2023-06-19T04:28:10;10.03;;;8.97;;
38901;SDS011;24661;53.566;9.910;2023-06-19T04:30:36;15.93;;;8.13;;
38901;SDS011;24661;53.566;9.910;2023-06-19T04:33:04;10.23;;;8.53;;
38901;SDS011;24661;53.566;9.910;2023-06-19T04:35:31;12.07;;;8.60;;
38901;SDS011;24661;53.566;9.910;2023-06-19T04:37:56;8.80;;;7.80;;
38901;SDS011;24661;53.566;9.910;2023-06-19T04:40:26;10.47;;;8.93;;
38901;SDS011;24661;53.566;9.910;2023-06-19T04:42:51;10.50;;;9.07;;
38901;SDS011;24661;53.566;9.910;2023-06-19T04:45:19;10.73;;;8.77;;
38901;SDS011;24661;53.566;9.910;2023-06-19T04:47:44;10.03;;;8.73;;
38901;SDS011;24661;53.566;9.910;2023-06-19T04:50:10;11.73;;;8.73;;
38901;SDS011;24661;53.566;9.910;2023-06-19T04:52:35;13.43;;;9.17;;
38901;SDS011;24661;53.566;9.910;2023-06-19T04:55:02;11.90;;;8.90;;
38901;SDS011;24661;53.566;9.910;2023-06-19T04:57:30;13.10;;;8.83;;
38901;SDS011;24661;53.566;9.910;2023-06-19T04:59:55;11.57;;;8.67;;
38901;SDS011;24661;53.566;9.910;2023-06-19T05:02:21;12.40;;;8.53;;
38901;SDS011;24661;53.566;9.910;2023-06-19T05:04:48;11.23;;;7.77;;
38901;SDS011;24661;53.566;9.910;2023-06-19T05:07:14;11.07;;;8.80;;
38901;SDS011;24661;53.566;9.910;2023-06-19T05:09:40;14.50;;;8.97;;
38901;SDS011;24661;53.566;9.910;2023-06-19T05:12:06;12.57;;;8.80;;
38901;SDS011;24661;53.566;9.910;2023-06-19T05:14:31;11.73;;;8.90;;
38901;SDS011;24661;53.566;9.910;2023-06-19T05:16:57;14.87;;;8.87;;
38901;SDS011;24661;53.566;9.910;2023-06-19T05:19:22;17.13;;;9.87;;
38901;SDS011;24661;53.566;9.910;2023-06-19T05:21:48;12.43;;;8.97;;
38901;SDS011;24661;53.566;9.910;2023-06-19T05:24:13;15.97;;;8.50;;
38901;SDS011;24661;53.566;9.910;2023-06-19T05:26:39;14.10;;;9.10;;
38901;SDS011;24661;53.566;9.910;2023-06-19T05:29:04;13.87;;;9.23;;
38901;SDS011;24661;53.566;9.910;2023-06-19T05:31:33;11.83;;;9.87;;
38901;SDS011;24661;53.566;9.910;2023-06-19T05:33:59;12.60;;;9.20;;
38901;SDS011;24661;53.566;9.910;2023-06-19T05:36:24;11.13;;;9.83;;
38901;SDS011;24661;53.566;9.910;2023-06-19T05:38:50;11.13;;;8.63;;
38901;SDS011;24661;53.566;9.910;2023-06-19T05:41:15;11.47;;;8.10;;
38901;SDS011;24661;53.566;9.910;2023-06-19T05:43:41;11.77;;;9.40;;
38901;SDS011;24661;53.566;9.910;2023-06-19T05:46:07;11.03;;;8.57;;
38901;SDS011;24661;53.566;9.910;2023-06-19T05:48:32;11.70;;;8.20;;
38901;SDS011;24661;53.566;9.910;2023-06-19T05:50:58;9.77;;;8.87;;
38901;SDS011;24661;53.566;9.910;2023-06-19T05:53:23;8.97;;;8.07;;
38901;SDS011;24661;53.566;9.910;2023-06-19T05:55:50;16.70;;;10.10;;
38901;SDS011;24661;53.566;9.910;2023-06-19T05:58:16;14.50;;;10.97;;
38901;SDS011;24661;53.566;9.910;2023-06-19T06:00:44;12.00;;;10.13;;
38901;SDS011;24661;53.566;9.910;2023-06-19T06:03:10;13.67;;;10.57;;
38901;SDS011;24661;53.566;9.910;2023-06-19T06:05:36;11.27;;;10.13;;
38901;SDS011;24661;53.566;9.910;2023-06-19T06:08:01;13.10;;;9.60;;
38901;SDS011;24661;53.566;9.910;2023-06-19T06:10:27;11.93;;;9.67;;
38901;SDS011;24661;53.566;9.910;2023-06-19T06:12:53;10.43;;;9.23;;
38901;SDS011;24661;53.566;9.910;2023-06-19T06:15:18;13.40;;;10.50;;
38901;SDS011;24661;53.566;9.910;2023-06-19T06:17:44;13.57;;;9.93;;
38901;SDS011;24661;53.566;9.910;2023-06-19T06:20:09;10.97;;;9.83;;
38901;SDS011;24661;53.566;9.910;2023-06-19T06:22:40;10.83;;;9.57;;
38901;SDS011;24661;53.566;9.910;2023-06-19T06:25:07;13.00;;;10.37;;
38901;SDS011;24661;53.566;9.910;2023-06-19T06:27:35;12.40;;;11.17;;
38901;SDS011;24661;53.566;9.910;2023-06-19T06:30:00;11.43;;;9.60;;
38901;SDS011;24661;53.566;9.910;2023-06-19T06:32:26;11.40;;;10.23;;
38901;SDS011;24661;53.566;9.910;2023-06-19T06:34:54;12.43;;;11.07;;
38901;SDS011;24661;53.566;9.910;2023-06-19T06:37:19;11.53;;;10.33;;
38901;SDS011;24661;53.566;9.910;2023-06-19T06:39:47;11.97;;;10.40;;
38901;SDS011;24661;53.566;9.910;2023-06-19T06:42:14;13.20;;;10.37;;
38901;SDS011;24661;53.566;9.910;2023-06-19T06:44:39;15.30;;;10.67;;
38901;SDS011;24661;53.566;9.910;2023-06-19T06:47:05;11.40;;;10.17;;
38901;SDS011;24661;53.566;9.910;2023-06-19T06:49:30;11.43;;;10.23;;
38901;SDS011;24661;53.566;9.910;2023-06-19T06:51:56;10.47;;;9.17;;
38901;SDS011;24661;53.566;9.910;2023-06-19T06:54:22;11.87;;;10.63;;
38901;SDS011;24661;53.566;9.910;2023-06-19T06:56:47;13.53;;;10.30;;
38901;SDS011;24661;53.566;9.910;2023-06-19T06:59:13;15.87;;;10.87;;
38901;SDS011;24661;53.566;9.910;2023-06-19T07:01:41;12.50;;;10.30;;
38901;SDS011;24661;53.566;9.910;2023-06-19T07:04:07;14.77;;;10.53;;
38901;SDS011;24661;53.566;9.910;2023-06-19T07:06:32;12.47;;;10.93;;
38901;SDS011;24661;53.566;9.910;2023-06-19T07:08:58;12.63;;;10.30;;
38901;SDS011;24661;53.566;9.910;2023-06-19T07:11:23;13.50;;;10.53;;
38901;SDS011;24661;53.566;9.910;2023-06-19T07:13:49;14.17;;;10.57;;
38901;SDS011;24661;53.566;9.910;2023-06-19T07:16:15;13.90;;;11.07;;
38901;SDS011;24661;53.566;9.910;2023-06-19T07:18:40;11.13;;;9.73;;
38901;SDS011;24661;53.566;9.910;2023-06-19T07:21:11;17.23;;;10.80;;
38901;SDS011;24661;53.566;9.910;2023-06-19T07:23:40;14.83;;;13.23;;
38901;SDS011;24661;53.566;9.910;2023-06-19T07:26:06;16.90;;;10.67;;
38901;SDS011;24661;53.566;9.910;2023-06-19T07:28:32;11.50;;;10.37;;
38901;SDS011;24661;53.566;9.910;2023-06-19T07:30:57;16.33;;;9.70;;
38901;SDS011;24661;53.566;9.910;2023-06-19T07:33:23;14.50;;;11.23;;
38901;SDS011;24661;53.566;9.910;2023-06-19T07:35:48;13.73;;;10.10;;
38901;SDS011;24661;53.566;9.910;2023-06-19T07:38:14;15.67;;;10.77;;
38901;SDS011;24661;53.566;9.910;2023-06-19T07:40:41;21.20;;;11.33;;
38901;SDS011;24661;53.566;9.910;2023-06-19T07:43:06;20.27;;;11.23;;
38901;SDS011;24661;53.566;9.910;2023-06-19T07:45:32;20.10;;;11.07;;
38901;SDS011;24661;53.566;9.910;2023-06-19T07:47:57;17.80;;;10.00;;
38901;SDS011;24661;53.566;9.910;2023-06-19T07:50:23;14.17;;;11.07;;
38901;SDS011;24661;53.566;9.910;2023-06-19T07:52:49;13.80;;;10.80;;
38901;SDS011;24661;53.566;9.910;2023-06-19T07:55:14;11.30;;;10.20;;
38901;SDS011;24661;53.566;9.910;2023-06-19T07:57:40;13.33;;;11.13;;
38901;SDS011;24661;53.566;9.910;2023-06-19T08:00:06;13.47;;;11.20;;
38901;SDS011;24661;53.566;9.910;2023-06-19T08:02:36;13.13;;;10.33;;
38901;SDS011;24661;53.566;9.910;2023-06-19T08:05:01;12.60;;;10.17;;
38901;SDS011;24661;53.566;9.910;2023-06-19T08:07:28;11.97;;;9.00;;
38901;SDS011;24661;53.566;9.910;2023-06-19T08:09:53;10.87;;;9.80;;
38901;SDS011;24661;53.566;9.910;2023-06-19T08:12:19;28.33;;;10.67;;
38901;SDS011;24661;53.566;9.910;2023-06-19T08:14:44;13.70;;;10.87;;
38901;SDS011;24661;53.566;9.910;2023-06-19T08:17:10;11.83;;;10.43;;
38901;SDS011;24661;53.566;9.910;2023-06-19T08:19:36;11.03;;;9.87;;
38901;SDS011;24661;53.566;9.910;2023-06-19T08:22:04;12.57;;;11.27;;
38901;SDS011;24661;53.566;9.910;2023-06-19T08:24:30;16.63;;;11.40;;
38901;SDS011;24661;53.566;9.910;2023-06-19T08:26:56;12.00;;;10.80;;
38901;SDS011;24661;53.566;9.910;2023-06-19T08:29:21;14.33;;;11.83;;
38901;SDS011;24661;53.566;9.910;2023-06-19T08:31:48;13.30;;;10.23;;
38901;SDS011;24661;53.566;9.910;2023-06-19T08:34:14;16.03;;;11.23;;
38901;SDS011;24661;53.566;9.910;2023-06-19T08:36:39;13.93;;;11.87;;
38901;SDS011;24661;53.566;9.910;2023-06-19T08:39:06;17.60;;;10.87;;
38901;SDS011;24661;53.566;9.910;2023-06-19T08:41:33;11.57;;;10.23;;
38901;SDS011;24661;53.566;9.910;2023-06-19T08:44:01;12.07;;;10.87;;
38901;SDS011;24661;53.566;9.910;2023-06-19T08:46:28;10.97;;;9.83;;
38901;SDS011;24661;53.566;9.910;2023-06-19T08:48:54;11.77;;;9.93;;
38901;SDS011;24661;53.566;9.910;2023-06-19T08:51:21;11.33;;;10.20;;
38901;SDS011;24661;53.566;9.910;2023-06-19T08:53:54;12.23;;;10.93;;
38901;SDS011;24661;53.566;9.910;2023-06-19T08:56:21;11.87;;;10.40;;
38901;SDS011;24661;53.566;9.910;2023-06-19T08:58:46;12.30;;;11.03;;
38901;SDS011;24661;53.566;9.910;2023-06-19T09:01:13;13.67;;;11.87;;
38901;SDS011;24661;53.566;9.910;2023-06-19T09:03:43;12.17;;;9.60;;
38901;SDS011;24661;53.566;9.910;2023-06-19T09:06:11;11.40;;;9.47;;
38901;SDS011;24661;53.566;9.910;2023-06-19T09:08:44;13.70;;;11.47;;
38901;SDS011;24661;53.566;9.910;2023-06-19T09:11:11;18.70;;;11.43;;
38901;SDS011;24661;53.566;9.910;2023-06-19T09:13:37;12.03;;;9.97;;
38901;SDS011;24661;53.566;9.910;2023-06-19T09:16:04;14.90;;;11.37;;
38901;SDS011;24661;53.566;9.910;2023-06-19T09:18:31;16.47;;;11.37;;
38901;SDS011;24661;53.566;9.910;2023-06-19T09:21:16;11.30;;;10.20;;
38901;SDS011;24661;53.566;9.910;2023-06-19T09:23:47;18.17;;;10.93;;
38901;SDS011;24661;53.566;9.910;2023-06-19T09:26:16;11.40;;;9.57;;
38901;SDS011;24661;53.566;9.910;2023-06-19T09:28:42;11.50;;;10.37;;
38901;SDS011;24661;53.566;9.910;2023-06-19T09:31:08;13.33;;;11.93;;
38901;SDS011;24661;53.566;9.910;2023-06-19T09:33:34;11.70;;;10.57;;
38901;SDS011;24661;53.566;9.910;2023-06-19T09:36:03;25.87;;;18.13;;
38901;SDS011;24661;53.566;9.910;2023-06-19T09:38:30;14.87;;;11.50;;
38901;SDS011;24661;53.566;9.910;2023-06-19T09:41:02;12.27;;;10.90;;
38901;SDS011;24661;53.566;9.910;2023-06-19T09:46:04;12.07;;;10.27;;
38901;SDS011;24661;53.566;9.910;2023-06-19T09:48:31;19.23;;;9.70;;
38901;SDS011;24661;53.566;9.910;2023-06-19T09:51:01;13.07;;;10.00;;
38901;SDS011;24661;53.566;9.910;2023-06-19T09:53:27;13.07;;;10.23;;
38901;SDS011;24661;53.566;9.910;2023-06-19T09:55:54;13.07;;;9.40;;
38901;SDS011;24661;53.566;9.910;2023-06-19T09:58:21;11.13;;;10.03;;
38901;SDS011;24661;53.566;9.910;2023-06-19T10:00:48;12.50;;;10.20;;
38901;SDS011;24661;53.566;9.910;2023-06-19T10:03:15;11.67;;;10.47;;
38901;SDS011;24661;53.566;9.910;2023-06-19T10:05:41;11.77;;;10.67;;
38901;SDS011;24661;53.566;9.910;2023-06-19T10:08:08;12.30;;;10.83;;
38901;SDS011;24661;53.566;9.910;2023-06-19T10:10:34;15.20;;;11.37;;
38901;SDS011;24661;53.566;9.910;2023-06-19T10:13:11;11.53;;;10.43;;
38901;SDS011;24661;53.566;9.910;2023-06-19T10:15:40;12.30;;;11.20;;
38901;SDS011;24661;53.566;9.910;2023-06-19T10:18:08;12.10;;;10.90;;
38901;SDS011;24661;53.566;9.910;2023-06-19T10:20:38;14.80;;;10.83;;
38901;SDS011;24661;53.566;9.910;2023-06-19T10:30:56;18.67;;;13.03;;
38901;SDS011;24661;53.566;9.910;2023-06-19T10:33:27;20.37;;;12.70;;
38901;SDS011;24661;53.566;9.910;2023-06-19T10:35:58;15.47;;;11.37;;
38901;SDS011;24661;53.566;9.910;2023-06-19T10:38:27;15.60;;;10.90;;
38901;SDS011;24661;53.566;9.910;2023-06-19T10:40:53;13.97;;;10.17;;
38901;SDS011;24661;53.566;9.910;2023-06-19T10:43:19;16.10;;;10.63;;
38901;SDS011;24661;53.566;9.910;2023-06-19T10:45:47;15.03;;;11.07;;
38901;SDS011;24661;53.566;9.910;2023-06-19T10:48:13;14.87;;;10.67;;
38901;SDS011;24661;53.566;9.910;2023-06-19T10:50:48;9.97;;;8.97;;
38901;SDS011;24661;53.566;9.910;2023-06-19T10:53:28;11.73;;;10.37;;
38901;SDS011;24661;53.566;9.910;2023-06-19T10:56:01;11.50;;;9.33;;
38901;SDS011;24661;53.566;9.910;2023-06-19T10:58:28;11.00;;;8.83;;
38901;SDS011;24661;53.566;9.910;2023-06-19T11:00:53;11.47;;;9.40;;
38901;SDS011;24661;53.566;9.910;2023-06-19T11:03:20;9.33;;;8.50;;
38901;SDS011;24661;53.566;9.910;2023-06-19T11:05:46;9.63;;;8.73;;
38901;SDS011;24661;53.566;9.910;2023-06-19T11:08:16;8.40;;;7.53;;
38901;SDS011;24661;53.566;9.910;2023-06-19T11:10:47;8.43;;;7.57;;
38901;SDS011;24661;53.566;9.910;2023-06-19T11:13:14;9.90;;;8.90;;
38901;SDS011;24661;53.566;9.910;2023-06-19T11:15:41;9.00;;;8.17;;
38901;SDS011;24661;53.566;9.910;2023-06-19T11:18:07;8.30;;;7.60;;
38901;SDS011;24661;53.566;9.910;2023-06-19T11:20:42;8.30;;;7.50;;
38901;SDS011;24661;53.566;9.910;2023-06-19T11:23:09;7.43;;;6.73;;
38901;SDS011;24661;53.566;9.910;2023-06-19T11:25:38;7.67;;;6.97;;
38901;SDS011;24661;53.566;9.910;2023-06-19T11:28:10;7.50;;;6.67;;
38901;SDS011;24661;53.566;9.910;2023-06-19T11:30:40;7.77;;;6.83;;
38901;SDS011;24661;53.566;9.910;2023-06-19T11:33:15;10.10;;;7.50;;
38901;SDS011;24661;53.566;9.910;2023-06-19T11:35:48;7.90;;;7.10;;
38901;SDS011;24661;53.566;9.910;2023-06-19T11:38:21;7.53;;;6.93;;
38901;SDS011;24661;53.566;9.910;2023-06-19T11:40:48;8.30;;;7.00;;
38901;SDS011;24661;53.566;9.910;2023-06-19T11:43:27;7.77;;;6.97;;
38901;SDS011;24661;53.566;9.910;2023-06-19T11:45:53;9.67;;;7.37;;
38901;SDS011;24661;53.566;9.910;2023-06-19T11:48:23;8.20;;;6.93;;
38901;SDS011;24661;53.566;9.910;2023-06-19T11:50:49;8.57;;;6.77;;
38901;SDS011;24661;53.566;9.910;2023-06-19T11:53:16;11.33;;;7.90;;
38901;SDS011;24661;53.566;9.910;2023-06-19T11:55:42;8.17;;;6.60;;
38901;SDS011;24661;53.566;9.910;2023-06-19T11:58:08;8.50;;;7.03;;
38901;SDS011;24661;53.566;9.910;2023-06-19T12:00:35;8.07;;;6.87;;
38901;SDS011;24661;53.566;9.910;2023-06-19T12:03:02;10.13;;;6.23;;
38901;SDS011;24661;53.566;9.910;2023-06-19T12:05:28;8.70;;;6.80;;
38901;SDS011;24661;53.566;9.910;2023-06-19T12:07:53;8.37;;;7.50;;
38901;SDS011;24661;53.566;9.910;2023-06-19T12:10:19;15.83;;;13.27;;
38901;SDS011;24661;53.566;9.910;2023-06-19T12:12:45;11.63;;;8.37;;
38901;SDS011;24661;53.566;9.910;2023-06-19T12:15:11;9.00;;;6.70;;
38901;SDS011;24661;53.566;9.910;2023-06-19T12:17:37;11.10;;;7.07;;
38901;SDS011;24661;53.566;9.910;2023-06-19T12:20:03;8.10;;;6.53;;
38901;SDS011;24661;53.566;9.910;2023-06-19T12:22:32;12.90;;;6.60;;
38901;SDS011;24661;53.566;9.910;2023-06-19T12:24:58;8.33;;;6.17;;
38901;SDS011;24661;53.566;9.910;2023-06-19T12:27:24;9.53;;;7.00;;
38901;SDS011;24661;53.566;9.910;2023-06-19T12:29:50;8.83;;;6.03;;
38901;SDS011;24661;53.566;9.910;2023-06-19T12:32:15;6.67;;;6.07;;
38901;SDS011;24661;53.566;9.910;2023-06-19T12:34:41;5.60;;;5.10;;
38901;SDS011;24661;53.566;9.910;2023-06-19T12:37:11;7.73;;;6.00;;
38901;SDS011;24661;53.566;9.910;2023-06-19T12:39:39;6.37;;;5.73;;
38901;SDS011;24661;53.566;9.910;2023-06-19T12:42:05;6.73;;;5.73;;
38901;SDS011;24661;53.566;9.910;2023-06-19T12:44:31;7.00;;;6.30;;
38901;SDS011;24661;53.566;9.910;2023-06-19T12:46:57;10.17;;;6.60;;
38901;SDS011;24661;53.566;9.910;2023-06-19T12:49:25;11.33;;;6.13;;
38901;SDS011;24661;53.566;9.910;2023-06-19T12:51:51;9.87;;;6.40;;
38901;SDS011;24661;53.566;9.910;2023-06-19T12:54:17;8.37;;;6.73;;
38901;SDS011;24661;53.566;9.910;2023-06-19T12:56:43;8.00;;;6.33;;
38901;SDS011;24661;53.566;9.910;2023-06-19T12:59:09;7.43;;;6.67;;
38901;SDS011;24661;53.566;9.910;2023-06-19T13:01:35;6.70;;;6.10;;
38901;SDS011;24661;53.566;9.910;2023-06-19T13:04:00;8.30;;;6.60;;
38901;SDS011;24661;53.566;9.910;2023-06-19T13:06:26;9.73;;;7.07;;
38901;SDS011;24661;53.566;9.910;2023-06-19T13:08:52;11.43;;;9.03;;
38901;SDS011;24661;53.566;9.910;2023-06-19T13:11:17;13.43;;;11.40;;
38901;SDS011;24661;53.566;9.910;2023-06-19T13:13:43;7.97;;;6.07;;
38901;SDS011;24661;53.566;9.910;2023-06-19T13:16:08;5.40;;;4.90;;
38901;SDS011;24661;53.566;9.910;2023-06-19T13:18:37;5.77;;;5.17;;
38901;SDS011;24661;53.566;9.910;2023-06-19T13:21:03;7.00;;;5.07;;
38901;SDS011;24661;53.566;9.910;2023-06-19T13:23:28;7.53;;;5.83;;
38901;SDS011;24661;53.566;9.910;2023-06-19T13:25:56;11.23;;;7.30;;
38901;SDS011;24661;53.566;9.910;2023-06-19T13:28:22;7.07;;;5.13;;
38901;SDS011;24661;53.566;9.910;2023-06-19T13:30:49;6.57;;;5.30;;
38901;SDS011;24661;53.566;9.910;2023-06-19T13:33:15;8.00;;;7.10;;
38901;SDS011;24661;53.566;9.910;2023-06-19T13:35:41;7.60;;;5.60;;
38901;SDS011;24661;53.566;9.910;2023-06-19T13:38:07;6.83;;;5.50;;
38901;SDS011;24661;53.566;9.910;2023-06-19T13:40:33;9.13;;;5.50;;
38901;SDS011;24661;53.566;9.910;2023-06-19T13:42:58;7.97;;;5.50;;
38901;SDS011;24661;53.566;9.910;2023-06-19T13:45:25;6.00;;;5.03;;
38901;SDS011;24661;53.566;9.910;2023-06-19T13:47:51;6.70;;;4.60;;
38901;SDS011;24661;53.566;9.910;2023-06-19T13:50:16;6.07;;;5.37;;
38901;SDS011;24661;53.566;9.910;2023-06-19T13:52:45;5.57;;;4.80;;
38901;SDS011;24661;53.566;9.910;2023-06-19T13:55:11;6.67;;;4.80;;
38901;SDS011;24661;53.566;9.910;2023-06-19T13:57:39;5.27;;;4.53;;
38901;SDS011;24661;53.566;9.910;2023-06-19T14:00:05;4.90;;;3.97;;
38901;SDS011;24661;53.566;9.910;2023-06-19T14:02:32;7.93;;;4.60;;
38901;SDS011;24661;53.566;9.910;2023-06-19T14:04:58;7.30;;;5.13;;
38901;SDS011;24661;53.566;9.910;2023-06-19T14:07:25;7.53;;;5.30;;
38901;SDS011;24661;53.566;9.910;2023-06-19T14:09:51;6.50;;;4.80;;
38901;SDS011;24661;53.566;9.910;2023-06-19T14:12:18;6.20;;;4.83;;
38901;SDS011;24661;53.566;9.910;2023-06-19T14:14:44;13.73;;;7.73;;
38901;SDS011;24661;53.566;9.910;2023-06-19T14:17:09;8.10;;;6.37;;
38901;SDS011;24661;53.566;9.910;2023-06-19T14:19:35;5.70;;;4.90;;
38901;SDS011;24661;53.566;9.910;2023-06-19T14:22:00;7.20;;;4.80;;
38901;SDS011;24661;53.566;9.910;2023-06-19T14:24:27;5.70;;;4.90;;
38901;SDS011;24661;53.566;9.910;2023-06-19T14:26:52;6.03;;;4.67;;
38901;SDS011;24661;53.566;9.910;2023-06-19T14:29:18;9.13;;;8.17;;
38901;SDS011;24661;53.566;9.910;2023-06-19T14:31:45;6.17;;;5.57;;
38901;SDS011;24661;53.566;9.910;2023-06-19T14:34:11;5.27;;;4.77;;
38901;SDS011;24661;53.566;9.910;2023-06-19T14:36:38;7.30;;;4.73;;
38901;SDS011;24661;53.566;9.910;2023-06-19T14:39:04;5.20;;;4.70;;
38901;SDS011;24661;53.566;9.910;2023-06-19T14:41:30;5.77;;;4.90;;
38901;SDS011;24661;53.566;9.910;2023-06-19T14:43:55;5.77;;;5.03;;
38901;SDS011;24661;53.566;9.910;2023-06-19T14:46:21;6.83;;;5.40;;
38901;SDS011;24661;53.566;9.910;2023-06-19T14:48:46;5.67;;;4.90;;